sensor_id;sensor_type;location;lat;lon;timestamp;P1;durP1;ratioP1;P2;durP2;ratioP2
71207;SDS011;58938;49.868;8.646;2024-03-23T00:55:19;14.05;;;9.02;;
71207;SDS011;58938;49.868;8.646;2024-03-23T00:57:45;15.82;;;9.50;;
71207;SDS011;58938;49.868;8.646;2024-03-23T01:00:11;18.67;;;9.85;;
71207;SDS011;58938;49.868;8.646;2024-03-23T01:02:37;17.00;;;9.95;;
71207;SDS011;58938;49.868;8.646;2024-03-23T01:05:03;17.73;;;10.60;;
71207;SDS011;58938;49.868;8.646;2024-03-23T01:07:29;16.30;;;11.23;;
71207;SDS011;58938;49.868;8.646;2024-03-23T01:09:55;16.48;;;9.57;;
71207;SDS011;58938;49.868;8.646;2024-03-23T01:12:21;23.60;;;9.87;;
71207;SDS011;58938;49.868;8.646;2024-03-23T01:14:47;16.47;;;10.10;;
71207;SDS011;58938;49.868;8.646;2024-03-23T01:17:13;17.35;;;10.38;;
71207;SDS011;58938;49.868;8.646;2024-03-23T01:19:39;16.42;;;9.95;;
71207;SDS011;58938;49.868;8.646;2024-03-23T01:22:06;16.80;;;10.65;;
71207;SDS011;58938;49.868;8.646;2024-03-23T01:24:32;19.43;;;11.07;;
71207;SDS011;58938;49.868;8.646;2024-03-23T01:26:58;21.08;;;10.40;;
71207;SDS011;58938;49.868;8.646;2024-03-23T01:29:24;16.02;;;10.27;;
71207;SDS011;58938;49.868;8.646;2024-03-23T01:31:50;19.77;;;11.30;;
71207;SDS011;58938;49.868;8.646;2024-03-23T01:34:16;22.87;;;11.23;;
71207;SDS011;58938;49.868;8.646;2024-03-23T01:36:42;17.85;;;10.98;;
71207;SDS011;58938;49.868;8.646;2024-03-23T01:39:08;19.02;;;10.68;;
71207;SDS011;58938;49.868;8.646;2024-03-23T01:41:34;19.50;;;10.73;;
71207;SDS011;58938;49.868;8.646;2024-03-23T01:44:01;17.93;;;11.17;;
71207;SDS011;58938;49.868;8.646;2024-03-23T01:46:30;18.52;;;10.85;;
71207;SDS011;58938;49.868;8.646;2024-03-23T01:48:56;19.10;;;10.75;;
71207;SDS011;58938;49.868;8.646;2024-03-23T01:51:22;18.30;;;11.70;;
71207;SDS011;58938;49.868;8.646;2024-03-23T01:53:49;21.13;;;11.50;;
71207;SDS011;58938;49.868;8.646;2024-03-23T01:56:15;23.63;;;10.95;;
71207;SDS011;58938;49.868;8.646;2024-03-23T01:58:41;18.90;;;10.63;;
71207;SDS011;58938;49.868;8.646;2024-03-23T02:01:07;17.92;;;9.82;;
71207;SDS011;58938;49.868;8.646;2024-03-23T02:03:33;18.87;;;10.60;;
71207;SDS011;58938;49.868;8.646;2024-03-23T02:05:59;18.17;;;10.02;;
71207;SDS011;58938;49.868;8.646;2024-03-23T02:08:25;17.55;;;11.32;;
71207;SDS011;58938;49.868;8.646;2024-03-23T02:10:51;21.45;;;10.63;;
71207;SDS011;58938;49.868;8.646;2024-03-23T02:13:17;18.80;;;10.90;;
71207;SDS011;58938;49.868;8.646;2024-03-23T02:15:44;21.10;;;10.77;;
71207;SDS011;58938;49.868;8.646;2024-03-23T02:18:10;25.08;;;11.50;;
71207;SDS011;58938;49.868;8.646;2024-03-23T02:20:36;20.00;;;11.82;;
71207;SDS011;58938;49.868;8.646;2024-03-23T02:23:03;19.88;;;11.30;;
71207;SDS011;58938;49.868;8.646;2024-03-23T02:25:31;18.98;;;11.13;;
71207;SDS011;58938;49.868;8.646;2024-03-23T02:27:57;17.13;;;10.33;;
71207;SDS011;58938;49.868;8.646;2024-03-23T02:30:24;19.45;;;10.98;;
71207;SDS011;58938;49.868;8.646;2024-03-23T02:32:50;24.48;;;11.43;;
71207;SDS011;58938;49.868;8.646;2024-03-23T02:35:16;18.65;;;11.38;;
71207;SDS011;58938;49.868;8.646;2024-03-23T02:37:42;17.45;;;11.10;;
71207;SDS011;58938;49.868;8.646;2024-03-23T02:40:08;19.27;;;11.10;;
71207;SDS011;58938;49.868;8.646;2024-03-23T02:42:34;18.95;;;11.18;;
71207;SDS011;58938;49.868;8.646;2024-03-23T02:45:00;16.85;;;10.75;;
71207;SDS011;58938;49.868;8.646;2024-03-23T02:47:25;19.03;;;10.53;;
71207;SDS011;58938;49.868;8.646;2024-03-23T02:49:51;18.95;;;11.65;;
71207;SDS011;58938;49.868;8.646;2024-03-23T02:52:17;18.85;;;10.82;;
71207;SDS011;58938;49.868;8.646;2024-03-23T02:54:43;19.88;;;11.18;;
71207;SDS011;58938;49.868;8.646;2024-03-23T02:57:10;21.00;;;10.80;;
71207;SDS011;58938;49.868;8.646;2024-03-23T02:59:36;19.95;;;11.45;;
71207;SDS011;58938;49.868;8.646;2024-03-23T03:02:02;18.13;;;11.20;;
71207;SDS011;58938;49.868;8.646;2024-03-23T03:04:29;23.33;;;12.07;;
71207;SDS011;58938;49.868;8.646;2024-03-23T03:06:55;19.50;;;10.90;;
71207;SDS011;58938;49.868;8.646;2024-03-23T03:09:21;19.73;;;11.18;;
71207;SDS011;58938;49.868;8.646;2024-03-23T03:11:47;19.98;;;11.50;;
71207;SDS011;58938;49.868;8.646;2024-03-23T03:14:13;21.25;;;10.93;;
71207;SDS011;58938;49.868;8.646;2024-03-23T03:16:39;19.97;;;11.70;;
71207;SDS011;58938;49.868;8.646;2024-03-23T03:19:05;19.05;;;11.23;;
71207;SDS011;58938;49.868;8.646;2024-03-23T03:21:31;18.48;;;9.68;;
71207;SDS011;58938;49.868;8.646;2024-03-23T03:23:57;20.75;;;11.13;;
71207;SDS011;58938;49.868;8.646;2024-03-23T03:26:23;22.43;;;10.30;;
71207;SDS011;58938;49.868;8.646;2024-03-23T03:28:50;16.48;;;10.38;;
71207;SDS011;58938;49.868;8.646;2024-03-23T03:31:16;17.73;;;11.05;;
71207;SDS011;58938;49.868;8.646;2024-03-23T03:33:42;18.98;;;10.45;;
71207;SDS011;58938;49.868;8.646;2024-03-23T03:36:08;19.98;;;11.20;;
71207;SDS011;58938;49.868;8.646;2024-03-23T03:38:34;20.90;;;11.17;;
71207;SDS011;58938;49.868;8.646;2024-03-23T03:41:00;19.90;;;10.60;;
71207;SDS011;58938;49.868;8.646;2024-03-23T03:43:26;22.02;;;10.75;;
71207;SDS011;58938;49.868;8.646;2024-03-23T03:45:53;20.63;;;10.73;;
71207;SDS011;58938;49.868;8.646;2024-03-23T03:48:19;21.25;;;11.70;;
71207;SDS011;58938;49.868;8.646;2024-03-23T03:50:45;21.87;;;11.30;;
71207;SDS011;58938;49.868;8.646;2024-03-23T03:53:11;20.98;;;10.27;;
71207;SDS011;58938;49.868;8.646;2024-03-23T03:55:37;21.48;;;11.32;;
71207;SDS011;58938;49.868;8.646;2024-03-23T03:58:03;21.30;;;10.07;;
71207;SDS011;58938;49.868;8.646;2024-03-23T04:00:29;18.95;;;11.60;;
71207;SDS011;58938;49.868;8.646;2024-03-23T04:02:55;22.17;;;11.95;;
71207;SDS011;58938;49.868;8.646;2024-03-23T04:05:21;21.85;;;11.25;;
71207;SDS011;58938;49.868;8.646;2024-03-23T04:07:47;23.42;;;12.02;;
71207;SDS011;58938;49.868;8.646;2024-03-23T04:10:13;23.83;;;11.73;;
71207;SDS011;58938;49.868;8.646;2024-03-23T04:12:40;21.05;;;11.05;;
71207;SDS011;58938;49.868;8.646;2024-03-23T04:15:06;23.35;;;11.77;;
71207;SDS011;58938;49.868;8.646;2024-03-23T04:17:33;22.13;;;11.32;;
71207;SDS011;58938;49.868;8.646;2024-03-23T04:19:59;21.63;;;10.87;;
71207;SDS011;58938;49.868;8.646;2024-03-23T04:22:26;24.55;;;10.85;;
71207;SDS011;58938;49.868;8.646;2024-03-23T04:24:55;23.33;;;11.65;;
71207;SDS011;58938;49.868;8.646;2024-03-23T04:27:22;22.00;;;11.30;;
71207;SDS011;58938;49.868;8.646;2024-03-23T04:29:48;26.15;;;12.02;;
71207;SDS011;58938;49.868;8.646;2024-03-23T04:32:14;21.90;;;11.30;;
71207;SDS011;58938;49.868;8.646;2024-03-23T04:34:40;24.40;;;12.88;;
71207;SDS011;58938;49.868;8.646;2024-03-23T04:37:06;32.85;;;15.15;;
71207;SDS011;58938;49.868;8.646;2024-03-23T04:39:33;31.20;;;17.23;;
71207;SDS011;58938;49.868;8.646;2024-03-23T04:41:59;31.13;;;14.98;;
71207;SDS011;58938;49.868;8.646;2024-03-23T04:44:26;23.07;;;11.83;;
71207;SDS011;58938;49.868;8.646;2024-03-23T04:46:52;17.30;;;9.25;;
71207;SDS011;58938;49.868;8.646;2024-03-23T04:49:18;15.93;;;7.82;;
71207;SDS011;58938;49.868;8.646;2024-03-23T04:51:44;18.23;;;8.88;;
71207;SDS011;58938;49.868;8.646;2024-03-23T04:54:13;16.30;;;7.57;;
71207;SDS011;58938;49.868;8.646;2024-03-23T04:56:39;12.30;;;6.00;;
71207;SDS011;58938;49.868;8.646;2024-03-23T04:59:05;11.68;;;6.05;;
71207;SDS011;58938;49.868;8.646;2024-03-23T05:01:31;9.63;;;4.60;;
71207;SDS011;58938;49.868;8.646;2024-03-23T05:03:57;10.73;;;5.32;;
71207;SDS011;58938;49.868;8.646;2024-03-23T05:06:24;8.17;;;4.77;;
71207;SDS011;58938;49.868;8.646;2024-03-23T05:08:50;6.25;;;2.88;;
71207;SDS011;58938;49.868;8.646;2024-03-23T05:11:16;6.45;;;3.38;;
71207;SDS011;58938;49.868;8.646;2024-03-23T05:13:42;5.47;;;2.50;;
71207;SDS011;58938;49.868;8.646;2024-03-23T05:16:08;6.25;;;2.70;;
71207;SDS011;58938;49.868;8.646;2024-03-23T05:18:34;4.30;;;2.30;;
71207;SDS011;58938;49.868;8.646;2024-03-23T05:21:00;5.93;;;2.95;;
71207;SDS011;58938;49.868;8.646;2024-03-23T05:23:27;5.00;;;2.53;;
71207;SDS011;58938;49.868;8.646;2024-03-23T05:25:54;5.25;;;2.47;;
71207;SDS011;58938;49.868;8.646;2024-03-23T05:28:20;6.77;;;2.53;;
71207;SDS011;58938;49.868;8.646;2024-03-23T05:30:55;5.07;;;2.10;;
71207;SDS011;58938;49.868;8.646;2024-03-23T05:33:24;5.05;;;2.90;;
71207;SDS011;58938;49.868;8.646;2024-03-23T05:35:57;5.50;;;1.80;;
71207;SDS011;58938;49.868;8.646;2024-03-23T05:38:24;5.75;;;2.83;;
71207;SDS011;58938;49.868;8.646;2024-03-23T05:40:59;4.53;;;2.10;;
71207;SDS011;58938;49.868;8.646;2024-03-23T05:43:25;6.28;;;2.33;;
71207;SDS011;58938;49.868;8.646;2024-03-23T05:45:55;7.40;;;2.67;;
71207;SDS011;58938;49.868;8.646;2024-03-23T05:48:21;4.82;;;2.30;;
71207;SDS011;58938;49.868;8.646;2024-03-23T05:50:48;6.32;;;2.95;;
71207;SDS011;58938;49.868;8.646;2024-03-23T05:53:17;4.80;;;2.80;;
71207;SDS011;58938;49.868;8.646;2024-03-23T05:55:43;5.22;;;2.75;;
71207;SDS011;58938;49.868;8.646;2024-03-23T05:58:10;6.18;;;3.28;;
71207;SDS011;58938;49.868;8.646;2024-03-23T06:00:36;5.65;;;3.65;;
71207;SDS011;58938;49.868;8.646;2024-03-23T06:03:02;6.20;;;3.87;;
71207;SDS011;58938;49.868;8.646;2024-03-23T06:05:28;6.22;;;4.13;;
71207;SDS011;58938;49.868;8.646;2024-03-23T06:07:53;7.00;;;4.50;;
71207;SDS011;58938;49.868;8.646;2024-03-23T06:10:19;5.68;;;3.75;;
71207;SDS011;58938;49.868;8.646;2024-03-23T06:12:46;6.70;;;4.50;;
71207;SDS011;58938;49.868;8.646;2024-03-23T06:15:12;6.38;;;3.83;;
71207;SDS011;58938;49.868;8.646;2024-03-23T06:17:38;6.93;;;4.78;;
71207;SDS011;58938;49.868;8.646;2024-03-23T06:20:05;7.88;;;4.10;;
71207;SDS011;58938;49.868;8.646;2024-03-23T06:22:31;6.20;;;4.23;;
71207;SDS011;58938;49.868;8.646;2024-03-23T06:24:57;5.47;;;3.45;;
71207;SDS011;58938;49.868;8.646;2024-03-23T06:27:23;7.85;;;3.58;;
71207;SDS011;58938;49.868;8.646;2024-03-23T06:29:49;5.78;;;3.45;;
71207;SDS011;58938;49.868;8.646;2024-03-23T06:32:15;5.57;;;3.17;;
71207;SDS011;58938;49.868;8.646;2024-03-23T06:34:41;4.47;;;2.83;;
71207;SDS011;58938;49.868;8.646;2024-03-23T06:37:07;5.25;;;3.15;;
71207;SDS011;58938;49.868;8.646;2024-03-23T06:39:34;5.10;;;3.13;;
71207;SDS011;58938;49.868;8.646;2024-03-23T06:42:00;5.20;;;2.97;;
71207;SDS011;58938;49.868;8.646;2024-03-23T06:44:26;5.30;;;2.67;;
71207;SDS011;58938;49.868;8.646;2024-03-23T06:46:52;5.45;;;3.35;;
71207;SDS011;58938;49.868;8.646;2024-03-23T06:49:18;4.97;;;3.10;;
71207;SDS011;58938;49.868;8.646;2024-03-23T06:51:44;5.80;;;3.20;;
71207;SDS011;58938;49.868;8.646;2024-03-23T06:54:10;4.78;;;3.00;;
71207;SDS011;58938;49.868;8.646;2024-03-23T06:56:37;5.57;;;2.83;;
71207;SDS011;58938;49.868;8.646;2024-03-23T06:59:03;4.15;;;2.38;;
71207;SDS011;58938;49.868;8.646;2024-03-23T07:01:29;3.70;;;2.07;;
71207;SDS011;58938;49.868;8.646;2024-03-23T07:03:55;3.90;;;2.13;;
71207;SDS011;58938;49.868;8.646;2024-03-23T07:06:21;3.78;;;2.30;;
71207;SDS011;58938;49.868;8.646;2024-03-23T07:08:46;4.00;;;2.20;;
71207;SDS011;58938;49.868;8.646;2024-03-23T07:11:18;4.63;;;1.77;;
71207;SDS011;58938;49.868;8.646;2024-03-23T07:13:44;3.88;;;2.30;;
71207;SDS011;58938;49.868;8.646;2024-03-23T07:16:10;3.58;;;2.20;;
71207;SDS011;58938;49.868;8.646;2024-03-23T07:18:38;4.32;;;2.33;;
71207;SDS011;58938;49.868;8.646;2024-03-23T07:21:04;3.75;;;2.30;;
71207;SDS011;58938;49.868;8.646;2024-03-23T07:23:31;4.27;;;2.33;;
71207;SDS011;58938;49.868;8.646;2024-03-23T07:25:58;3.90;;;1.92;;
71207;SDS011;58938;49.868;8.646;2024-03-23T07:28:24;5.38;;;2.33;;
71207;SDS011;58938;49.868;8.646;2024-03-23T07:33:31;4.45;;;2.75;;
71207;SDS011;58938;49.868;8.646;2024-03-23T07:35:58;5.83;;;2.80;;
71207;SDS011;58938;49.868;8.646;2024-03-23T07:38:28;6.22;;;2.50;;
71207;SDS011;58938;49.868;8.646;2024-03-23T07:41:03;4.60;;;2.28;;
71207;SDS011;58938;49.868;8.646;2024-03-23T07:43:29;4.63;;;2.40;;
71207;SDS011;58938;49.868;8.646;2024-03-23T07:45:55;6.00;;;2.90;;
71207;SDS011;58938;49.868;8.646;2024-03-23T07:48:21;7.20;;;2.67;;
71207;SDS011;58938;49.868;8.646;2024-03-23T07:50:55;5.35;;;2.85;;
71207;SDS011;58938;49.868;8.646;2024-03-23T07:53:21;5.57;;;2.35;;
71207;SDS011;58938;49.868;8.646;2024-03-23T07:55:57;6.85;;;2.78;;
71207;SDS011;58938;49.868;8.646;2024-03-23T07:58:24;4.40;;;2.30;;
71207;SDS011;58938;49.868;8.646;2024-03-23T08:00:50;5.20;;;2.38;;
71207;SDS011;58938;49.868;8.646;2024-03-23T08:03:16;6.63;;;2.67;;
71207;SDS011;58938;49.868;8.646;2024-03-23T08:05:42;5.38;;;3.00;;
71207;SDS011;58938;49.868;8.646;2024-03-23T08:08:08;7.03;;;2.50;;
71207;SDS011;58938;49.868;8.646;2024-03-23T08:10:34;7.03;;;3.05;;
71207;SDS011;58938;49.868;8.646;2024-03-23T08:13:00;7.75;;;3.60;;
71207;SDS011;58938;49.868;8.646;2024-03-23T08:15:26;8.50;;;3.28;;
71207;SDS011;58938;49.868;8.646;2024-03-23T08:17:52;9.90;;;3.97;;
71207;SDS011;58938;49.868;8.646;2024-03-23T08:20:18;7.15;;;3.67;;
71207;SDS011;58938;49.868;8.646;2024-03-23T08:22:44;10.07;;;3.72;;
71207;SDS011;58938;49.868;8.646;2024-03-23T08:25:10;7.93;;;3.90;;
71207;SDS011;58938;49.868;8.646;2024-03-23T08:27:36;6.97;;;3.10;;
71207;SDS011;58938;49.868;8.646;2024-03-23T08:30:02;8.18;;;4.03;;
71207;SDS011;58938;49.868;8.646;2024-03-23T08:32:28;7.15;;;4.15;;
71207;SDS011;58938;49.868;8.646;2024-03-23T08:34:54;12.68;;;5.28;;
71207;SDS011;58938;49.868;8.646;2024-03-23T08:37:20;8.40;;;4.87;;
71207;SDS011;58938;49.868;8.646;2024-03-23T08:39:46;9.48;;;4.45;;
71207;SDS011;58938;49.868;8.646;2024-03-23T08:42:12;10.90;;;4.97;;
71207;SDS011;58938;49.868;8.646;2024-03-23T08:44:38;10.23;;;4.50;;
71207;SDS011;58938;49.868;8.646;2024-03-23T08:47:04;9.80;;;4.20;;
71207;SDS011;58938;49.868;8.646;2024-03-23T08:49:30;7.10;;;4.55;;
71207;SDS011;58938;49.868;8.646;2024-03-23T08:51:56;7.97;;;4.10;;
71207;SDS011;58938;49.868;8.646;2024-03-23T08:54:22;10.27;;;4.95;;
71207;SDS011;58938;49.868;8.646;2024-03-23T08:56:48;10.03;;;5.50;;
71207;SDS011;58938;49.868;8.646;2024-03-23T08:59:14;13.10;;;4.72;;
71207;SDS011;58938;49.868;8.646;2024-03-23T09:01:40;8.43;;;4.28;;
71207;SDS011;58938;49.868;8.646;2024-03-23T09:04:06;10.23;;;4.93;;
71207;SDS011;58938;49.868;8.646;2024-03-23T09:06:32;9.95;;;3.85;;
71207;SDS011;58938;49.868;8.646;2024-03-23T09:08:58;9.30;;;5.15;;
71207;SDS011;58938;49.868;8.646;2024-03-23T09:11:24;7.25;;;4.20;;
71207;SDS011;58938;49.868;8.646;2024-03-23T09:13:50;9.30;;;4.40;;
71207;SDS011;58938;49.868;8.646;2024-03-23T09:16:16;9.45;;;5.00;;
71207;SDS011;58938;49.868;8.646;2024-03-23T09:18:42;9.00;;;4.97;;
71207;SDS011;58938;49.868;8.646;2024-03-23T09:21:12;9.60;;;4.73;;
71207;SDS011;58938;49.868;8.646;2024-03-23T09:23:39;12.07;;;5.10;;
71207;SDS011;58938;49.868;8.646;2024-03-23T09:26:05;12.90;;;5.72;;
71207;SDS011;58938;49.868;8.646;2024-03-23T09:28:34;9.50;;;4.95;;
71207;SDS011;58938;49.868;8.646;2024-03-23T09:31:06;10.05;;;4.40;;
71207;SDS011;58938;49.868;8.646;2024-03-23T09:33:33;10.40;;;4.97;;
71207;SDS011;58938;49.868;8.646;2024-03-23T09:36:02;8.93;;;4.70;;
71207;SDS011;58938;49.868;8.646;2024-03-23T09:38:28;10.65;;;4.85;;
71207;SDS011;58938;49.868;8.646;2024-03-23T09:40:55;13.70;;;4.75;;
71207;SDS011;58938;49.868;8.646;2024-03-23T09:43:21;9.50;;;4.47;;
71207;SDS011;58938;49.868;8.646;2024-03-23T09:45:47;10.00;;;4.13;;
71207;SDS011;58938;49.868;8.646;2024-03-23T09:48:13;11.43;;;4.85;;
71207;SDS011;58938;49.868;8.646;2024-03-23T09:50:39;9.45;;;4.32;;
71207;SDS011;58938;49.868;8.646;2024-03-23T09:53:06;11.52;;;3.85;;
71207;SDS011;58938;49.868;8.646;2024-03-23T09:55:33;8.07;;;3.70;;
71207;SDS011;58938;49.868;8.646;2024-03-23T09:58:00;10.48;;;3.80;;
71207;SDS011;58938;49.868;8.646;2024-03-23T10:00:26;12.43;;;3.58;;
71207;SDS011;58938;49.868;8.646;2024-03-23T10:02:54;8.52;;;4.43;;
71207;SDS011;58938;49.868;8.646;2024-03-23T10:05:21;9.93;;;3.63;;
71207;SDS011;58938;49.868;8.646;2024-03-23T10:07:52;9.57;;;3.45;;
71207;SDS011;58938;49.868;8.646;2024-03-23T10:10:18;11.23;;;4.78;;
71207;SDS011;58938;49.868;8.646;2024-03-23T10:12:45;7.93;;;3.90;;
71207;SDS011;58938;49.868;8.646;2024-03-23T10:15:18;9.20;;;3.97;;
71207;SDS011;58938;49.868;8.646;2024-03-23T10:17:45;10.53;;;3.93;;
71207;SDS011;58938;49.868;8.646;2024-03-23T10:20:11;10.70;;;3.60;;
71207;SDS011;58938;49.868;8.646;2024-03-23T10:22:37;8.00;;;3.40;;
71207;SDS011;58938;49.868;8.646;2024-03-23T10:25:10;7.82;;;3.42;;
71207;SDS011;58938;49.868;8.646;2024-03-23T10:27:37;8.20;;;3.13;;
71207;SDS011;58938;49.868;8.646;2024-03-23T10:32:35;10.32;;;3.10;;
71207;SDS011;58938;49.868;8.646;2024-03-23T10:38:00;8.18;;;3.08;;
71207;SDS011;58938;49.868;8.646;2024-03-23T10:40:26;7.40;;;2.90;;
71207;SDS011;58938;49.868;8.646;2024-03-23T10:42:55;4.88;;;2.67;;
71207;SDS011;58938;49.868;8.646;2024-03-23T10:45:23;8.18;;;2.92;;
71207;SDS011;58938;49.868;8.646;2024-03-23T10:47:49;6.05;;;2.58;;
71207;SDS011;58938;49.868;8.646;2024-03-23T10:50:15;8.65;;;2.90;;
71207;SDS011;58938;49.868;8.646;2024-03-23T10:52:41;10.33;;;3.90;;
71207;SDS011;58938;49.868;8.646;2024-03-23T10:55:11;7.20;;;3.35;;
71207;SDS011;58938;49.868;8.646;2024-03-23T10:57:41;8.55;;;2.20;;
71207;SDS011;58938;49.868;8.646;2024-03-23T11:00:10;6.47;;;2.58;;
71207;SDS011;58938;49.868;8.646;2024-03-23T11:02:36;8.57;;;2.57;;
71207;SDS011;58938;49.868;8.646;2024-03-23T11:05:10;7.55;;;2.33;;
71207;SDS011;58938;49.868;8.646;2024-03-23T11:07:52;10.02;;;3.03;;
71207;SDS011;58938;49.868;8.646;2024-03-23T11:10:25;8.75;;;2.90;;
71207;SDS011;58938;49.868;8.646;2024-03-23T11:12:51;8.23;;;2.58;;
71207;SDS011;58938;49.868;8.646;2024-03-23T11:15:17;8.63;;;2.73;;
71207;SDS011;58938;49.868;8.646;2024-03-23T11:18:01;11.27;;;3.75;;
71207;SDS011;58938;49.868;8.646;2024-03-23T11:20:31;14.43;;;3.58;;
71207;SDS011;58938;49.868;8.646;2024-03-23T11:22:57;9.32;;;3.45;;
71207;SDS011;58938;49.868;8.646;2024-03-23T11:25:23;7.83;;;3.00;;
71207;SDS011;58938;49.868;8.646;2024-03-23T11:27:50;9.02;;;3.08;;
71207;SDS011;58938;49.868;8.646;2024-03-23T11:30:17;9.98;;;3.38;;
71207;SDS011;58938;49.868;8.646;2024-03-23T11:32:43;6.35;;;2.90;;
71207;SDS011;58938;49.868;8.646;2024-03-23T11:35:10;7.88;;;2.72;;
71207;SDS011;58938;49.868;8.646;2024-03-23T11:37:37;10.90;;;2.73;;
71207;SDS011;58938;49.868;8.646;2024-03-23T11:40:18;6.97;;;2.67;;
71207;SDS011;58938;49.868;8.646;2024-03-23T11:42:44;19.50;;;6.45;;
71207;SDS011;58938;49.868;8.646;2024-03-23T11:45:10;4.13;;;1.88;;
71207;SDS011;58938;49.868;8.646;2024-03-23T11:47:37;5.05;;;2.85;;
71207;SDS011;58938;49.868;8.646;2024-03-23T11:50:03;5.77;;;2.50;;
71207;SDS011;58938;49.868;8.646;2024-03-23T11:52:29;4.45;;;2.38;;
71207;SDS011;58938;49.868;8.646;2024-03-23T11:55:04;6.22;;;2.70;;
71207;SDS011;58938;49.868;8.646;2024-03-23T11:57:32;14.23;;;7.00;;
71207;SDS011;58938;49.868;8.646;2024-03-23T11:59:58;4.97;;;3.03;;
71207;SDS011;58938;49.868;8.646;2024-03-23T12:02:24;4.73;;;2.00;;
71207;SDS011;58938;49.868;8.646;2024-03-23T12:04:50;5.28;;;2.28;;
71207;SDS011;58938;49.868;8.646;2024-03-23T12:07:17;4.15;;;1.75;;
71207;SDS011;58938;49.868;8.646;2024-03-23T12:09:46;4.15;;;1.70;;
71207;SDS011;58938;49.868;8.646;2024-03-23T12:12:14;4.43;;;2.30;;
71207;SDS011;58938;49.868;8.646;2024-03-23T12:14:41;4.60;;;2.13;;
71207;SDS011;58938;49.868;8.646;2024-03-23T12:17:11;6.03;;;2.55;;
71207;SDS011;58938;49.868;8.646;2024-03-23T12:19:37;5.18;;;2.50;;
71207;SDS011;58938;49.868;8.646;2024-03-23T12:22:04;11.68;;;3.95;;
71207;SDS011;58938;49.868;8.646;2024-03-23T12:24:30;5.73;;;2.83;;
71207;SDS011;58938;49.868;8.646;2024-03-23T12:27:00;6.30;;;2.72;;
71207;SDS011;58938;49.868;8.646;2024-03-23T12:29:27;5.57;;;2.38;;
71207;SDS011;58938;49.868;8.646;2024-03-23T12:31:53;7.72;;;2.33;;
71207;SDS011;58938;49.868;8.646;2024-03-23T12:34:19;4.10;;;2.10;;
71207;SDS011;58938;49.868;8.646;2024-03-23T12:36:45;9.53;;;2.63;;
71207;SDS011;58938;49.868;8.646;2024-03-23T12:39:11;5.57;;;2.33;;
71207;SDS011;58938;49.868;8.646;2024-03-23T12:41:36;4.90;;;2.53;;
71207;SDS011;58938;49.868;8.646;2024-03-23T12:44:02;5.40;;;2.07;;
71207;SDS011;58938;49.868;8.646;2024-03-23T12:46:28;8.15;;;2.78;;
71207;SDS011;58938;49.868;8.646;2024-03-23T12:48:54;7.95;;;2.75;;
71207;SDS011;58938;49.868;8.646;2024-03-23T12:51:20;11.37;;;2.77;;
71207;SDS011;58938;49.868;8.646;2024-03-23T12:53:46;5.15;;;2.13;;
71207;SDS011;58938;49.868;8.646;2024-03-23T12:56:12;17.23;;;6.28;;
71207;SDS011;58938;49.868;8.646;2024-03-23T12:58:38;7.50;;;3.10;;
71207;SDS011;58938;49.868;8.646;2024-03-23T13:01:04;5.40;;;2.30;;
71207;SDS011;58938;49.868;8.646;2024-03-23T13:03:31;5.75;;;2.13;;
71207;SDS011;58938;49.868;8.646;2024-03-23T13:05:57;5.97;;;2.78;;
71207;SDS011;58938;49.868;8.646;2024-03-23T13:08:23;8.55;;;2.90;;
71207;SDS011;58938;49.868;8.646;2024-03-23T13:10:51;6.13;;;3.37;;
71207;SDS011;58938;49.868;8.646;2024-03-23T13:13:17;7.63;;;2.72;;
71207;SDS011;58938;49.868;8.646;2024-03-23T13:15:49;7.70;;;3.03;;
71207;SDS011;58938;49.868;8.646;2024-03-23T13:18:15;6.13;;;2.78;;
71207;SDS011;58938;49.868;8.646;2024-03-23T13:20:41;8.77;;;2.57;;
71207;SDS011;58938;49.868;8.646;2024-03-23T13:23:07;5.35;;;2.13;;
71207;SDS011;58938;49.868;8.646;2024-03-23T13:25:33;3.88;;;2.47;;
71207;SDS011;58938;49.868;8.646;2024-03-23T13:27:59;4.93;;;2.30;;
71207;SDS011;58938;49.868;8.646;2024-03-23T13:30:26;6.07;;;3.03;;
71207;SDS011;58938;49.868;8.646;2024-03-23T13:32:52;7.40;;;3.40;;
71207;SDS011;58938;49.868;8.646;2024-03-23T13:35:18;6.22;;;3.17;;
71207;SDS011;58938;49.868;8.646;2024-03-23T13:37:44;7.30;;;2.63;;
71207;SDS011;58938;49.868;8.646;2024-03-23T13:40:10;4.90;;;2.57;;
71207;SDS011;58938;49.868;8.646;2024-03-23T13:42:36;6.13;;;3.00;;
71207;SDS011;58938;49.868;8.646;2024-03-23T13:45:02;6.20;;;3.05;;
71207;SDS011;58938;49.868;8.646;2024-03-23T13:47:29;9.40;;;2.78;;
71207;SDS011;58938;49.868;8.646;2024-03-23T13:49:55;7.00;;;3.40;;
71207;SDS011;58938;49.868;8.646;2024-03-23T13:52:21;8.52;;;3.15;;
71207;SDS011;58938;49.868;8.646;2024-03-23T13:54:51;7.82;;;3.75;;
71207;SDS011;58938;49.868;8.646;2024-03-23T13:57:17;8.70;;;3.05;;
71207;SDS011;58938;49.868;8.646;2024-03-23T13:59:46;9.15;;;2.60;;
71207;SDS011;58938;49.868;8.646;2024-03-23T14:02:12;5.63;;;2.50;;
71207;SDS011;58938;49.868;8.646;2024-03-23T14:04:39;6.18;;;2.97;;
71207;SDS011;58938;49.868;8.646;2024-03-23T14:07:05;6.32;;;2.53;;
71207;SDS011;58938;49.868;8.646;2024-03-23T14:09:32;5.35;;;2.38;;
71207;SDS011;58938;49.868;8.646;2024-03-23T14:11:58;6.97;;;2.60;;
71207;SDS011;58938;49.868;8.646;2024-03-23T14:14:25;6.05;;;2.10;;
71207;SDS011;58938;49.868;8.646;2024-03-23T14:16:51;3.83;;;2.10;;
71207;SDS011;58938;49.868;8.646;2024-03-23T14:19:18;5.47;;;2.70;;
71207;SDS011;58938;49.868;8.646;2024-03-23T14:21:44;5.28;;;2.05;;
71207;SDS011;58938;49.868;8.646;2024-03-23T14:24:10;4.57;;;1.70;;
71207;SDS011;58938;49.868;8.646;2024-03-23T14:26:36;5.45;;;2.33;;
71207;SDS011;58938;49.868;8.646;2024-03-23T14:29:02;6.05;;;2.90;;
71207;SDS011;58938;49.868;8.646;2024-03-23T14:31:29;5.03;;;2.33;;
71207;SDS011;58938;49.868;8.646;2024-03-23T14:33:54;4.10;;;1.80;;
71207;SDS011;58938;49.868;8.646;2024-03-23T14:36:20;5.20;;;2.27;;
71207;SDS011;58938;49.868;8.646;2024-03-23T14:38:47;5.78;;;2.55;;
71207;SDS011;58938;49.868;8.646;2024-03-23T14:41:13;5.35;;;2.60;;
71207;SDS011;58938;49.868;8.646;2024-03-23T14:43:39;4.53;;;2.30;;
71207;SDS011;58938;49.868;8.646;2024-03-23T14:46:12;3.87;;;1.80;;
71207;SDS011;58938;49.868;8.646;2024-03-23T14:48:38;4.55;;;1.73;;
71207;SDS011;58938;49.868;8.646;2024-03-23T14:51:05;3.78;;;2.08;;
71207;SDS011;58938;49.868;8.646;2024-03-23T14:53:34;4.85;;;1.60;;
71207;SDS011;58938;49.868;8.646;2024-03-23T14:56:01;4.28;;;1.55;;
71207;SDS011;58938;49.868;8.646;2024-03-23T14:58:27;3.67;;;1.53;;
71207;SDS011;58938;49.868;8.646;2024-03-23T15:00:59;3.20;;;1.60;;
71207;SDS011;58938;49.868;8.646;2024-03-23T15:03:25;4.20;;;1.90;;
71207;SDS011;58938;49.868;8.646;2024-03-23T15:05:58;2.80;;;1.25;;
71207;SDS011;58938;49.868;8.646;2024-03-23T15:08:25;4.85;;;1.65;;
71207;SDS011;58938;49.868;8.646;2024-03-23T15:10:52;3.83;;;1.63;;
71207;SDS011;58938;49.868;8.646;2024-03-23T15:13:18;3.42;;;1.55;;
71207;SDS011;58938;49.868;8.646;2024-03-23T15:15:46;3.50;;;1.27;;
71207;SDS011;58938;49.868;8.646;2024-03-23T15:18:14;4.75;;;1.63;;
71207;SDS011;58938;49.868;8.646;2024-03-23T15:20:51;4.03;;;2.00;;
71207;SDS011;58938;49.868;8.646;2024-03-23T15:23:17;4.03;;;1.50;;
71207;SDS011;58938;49.868;8.646;2024-03-23T15:25:43;5.20;;;1.65;;
71207;SDS011;58938;49.868;8.646;2024-03-23T15:28:09;4.90;;;2.33;;
71207;SDS011;58938;49.868;8.646;2024-03-23T15:30:35;7.67;;;2.37;;
71207;SDS011;58938;49.868;8.646;2024-03-23T15:33:01;5.10;;;2.13;;
71207;SDS011;58938;49.868;8.646;2024-03-23T15:35:27;4.22;;;1.85;;
71207;SDS011;58938;49.868;8.646;2024-03-23T15:37:53;5.60;;;1.83;;
71207;SDS011;58938;49.868;8.646;2024-03-23T15:40:19;3.33;;;1.87;;